sensor_id;sensor_type;location;lat;lon;timestamp;temperature;humidity
16347;DHT22;8283;48.504;13.734;2023-03-08T00:00:26;10.20;50.10
16347;DHT22;8283;48.504;13.734;2023-03-08T00:03:14;10.20;50.00
16347;DHT22;8283;48.504;13.734;2023-03-08T00:05:58;10.20;50.00
16347;DHT22;8283;48.504;13.734;2023-03-08T00:08:46;10.30;50.10
16347;DHT22;8283;48.504;13.734;2023-03-08T00:11:32;10.30;49.80
16347;DHT22;8283;48.504;13.734;2023-03-08T00:14:16;11.10;50.20
16347;DHT22;8283;48.504;13.734;2023-03-08T00:17:01;10.30;49.80
16347;DHT22;8283;48.504;13.734;2023-03-08T00:19:46;10.30;49.80
16347;DHT22;8283;48.504;13.734;2023-03-08T00:22:37;10.30;49.80
16347;DHT22;8283;48.504;13.734;2023-03-08T00:25:22;10.40;49.80
16347;DHT22;8283;48.504;13.734;2023-03-08T00:28:07;10.40;49.70
16347;DHT22;8283;48.504;13.734;2023-03-08T00:31:03;10.40;49.70
16347;DHT22;8283;48.504;13.734;2023-03-08T00:33:52;10.40;49.80
16347;DHT22;8283;48.504;13.734;2023-03-08T00:36:37;10.40;49.80
16347;DHT22;8283;48.504;13.734;2023-03-08T00:39:21;10.40;49.70
16347;DHT22;8283;48.504;13.734;2023-03-08T00:42:05;10.40;49.70
16347;DHT22;8283;48.504;13.734;2023-03-08T00:44:50;10.40;49.70
16347;DHT22;8283;48.504;13.734;2023-03-08T00:47:34;10.30;49.80
16347;DHT22;8283;48.504;13.734;2023-03-08T00:50:18;10.20;49.60
16347;DHT22;8283;48.504;13.734;2023-03-08T00:53:02;10.20;49.80
16347;DHT22;8283;48.504;13.734;2023-03-08T00:55:51;10.10;49.60
16347;DHT22;8283;48.504;13.734;2023-03-08T00:58:37;10.10;49.70
16347;DHT22;8283;48.504;13.734;2023-03-08T01:01:22;10.00;49.70
16347;DHT22;8283;48.504;13.734;2023-03-08T01:04:07;9.90;49.60
16347;DHT22;8283;48.504;13.734;2023-03-08T01:06:52;9.90;49.60
16347;DHT22;8283;48.504;13.734;2023-03-08T01:09:36;9.90;49.70
16347;DHT22;8283;48.504;13.734;2023-03-08T01:12:20;9.90;49.70
16347;DHT22;8283;48.504;13.734;2023-03-08T01:15:06;9.80;49.70
16347;DHT22;8283;48.504;13.734;2023-03-08T01:17:51;9.80;49.70
16347;DHT22;8283;48.504;13.734;2023-03-08T01:20:35;9.90;49.70
16347;DHT22;8283;48.504;13.734;2023-03-08T01:23:20;9.90;49.70
16347;DHT22;8283;48.504;13.734;2023-03-08T01:26:17;9.90;49.90
16347;DHT22;8283;48.504;13.734;2023-03-08T01:29:01;9.90;49.90
16347;DHT22;8283;48.504;13.734;2023-03-08T01:31:46;9.90;49.70
16347;DHT22;8283;48.504;13.734;2023-03-08T01:34:31;9.80;49.70
16347;DHT22;8283;48.504;13.734;2023-03-08T01:37:15;9.80;49.70
16347;DHT22;8283;48.504;13.734;2023-03-08T01:40:00;9.80;49.80
16347;DHT22;8283;48.504;13.734;2023-03-08T01:42:44;9.80;49.70
16347;DHT22;8283;48.504;13.734;2023-03-08T01:52:10;9.80;50.10
16347;DHT22;8283;48.504;13.734;2023-03-08T01:54:57;9.80;49.90
16347;DHT22;8283;48.504;13.734;2023-03-08T01:57:52;9.80;50.10
16347;DHT22;8283;48.504;13.734;2023-03-08T02:00:38;9.80;50.30
16347;DHT22;8283;48.504;13.734;2023-03-08T02:03:22;9.70;50.10
16347;DHT22;8283;48.504;13.734;2023-03-08T02:06:07;9.70;50.10
16347;DHT22;8283;48.504;13.734;2023-03-08T02:08:52;9.80;50.20
16347;DHT22;8283;48.504;13.734;2023-03-08T02:11:38;9.80;50.20
16347;DHT22;8283;48.504;13.734;2023-03-08T02:14:24;9.80;50.30
16347;DHT22;8283;48.504;13.734;2023-03-08T02:17:10;9.80;50.30
16347;DHT22;8283;48.504;13.734;2023-03-08T02:20:01;9.80;50.20
16347;DHT22;8283;48.504;13.734;2023-03-08T02:22:49;9.80;50.30
16347;DHT22;8283;48.504;13.734;2023-03-08T02:25:36;9.80;50.30
16347;DHT22;8283;48.504;13.734;2023-03-08T02:28:23;9.80;50.30
16347;DHT22;8283;48.504;13.734;2023-03-08T02:31:11;9.80;50.30
16347;DHT22;8283;48.504;13.734;2023-03-08T02:33:55;9.80;50.30
16347;DHT22;8283;48.504;13.734;2023-03-08T02:36:40;9.80;50.30
16347;DHT22;8283;48.504;13.734;2023-03-08T02:39:24;9.80;50.30
16347;DHT22;8283;48.504;13.734;2023-03-08T02:42:09;9.80;50.30
16347;DHT22;8283;48.504;13.734;2023-03-08T02:44:53;9.80;50.30
16347;DHT22;8283;48.504;13.734;2023-03-08T02:47:38;9.90;50.60
16347;DHT22;8283;48.504;13.734;2023-03-08T02:50:22;9.90;50.50
16347;DHT22;8283;48.504;13.734;2023-03-08T02:53:06;9.90;50.40
16347;DHT22;8283;48.504;13.734;2023-03-08T02:55:51;9.90;50.40
16347;DHT22;8283;48.504;13.734;2023-03-08T02:58:35;9.90;50.40
16347;DHT22;8283;48.504;13.734;2023-03-08T03:01:20;9.90;50.50
16347;DHT22;8283;48.504;13.734;2023-03-08T03:04:04;10.00;50.50
16347;DHT22;8283;48.504;13.734;2023-03-08T03:06:49;10.00;50.50
16347;DHT22;8283;48.504;13.734;2023-03-08T03:09:34;10.00;50.60
16347;DHT22;8283;48.504;13.734;2023-03-08T03:12:20;10.00;50.50
16347;DHT22;8283;48.504;13.734;2023-03-08T03:15:06;10.00;50.60
16347;DHT22;8283;48.504;13.734;2023-03-08T03:17:51;10.10;50.70
16347;DHT22;8283;48.504;13.734;2023-03-08T03:20:35;10.10;50.70
16347;DHT22;8283;48.504;13.734;2023-03-08T03:23:20;10.10;50.70
16347;DHT22;8283;48.504;13.734;2023-03-08T03:26:13;10.10;50.70
16347;DHT22;8283;48.504;13.734;2023-03-08T03:28:58;10.10;50.70
16347;DHT22;8283;48.504;13.734;2023-03-08T03:31:46;10.10;50.60
16347;DHT22;8283;48.504;13.734;2023-03-08T03:34:31;10.10;50.60
16347;DHT22;8283;48.504;13.734;2023-03-08T03:37:16;10.10;50.70
16347;DHT22;8283;48.504;13.734;2023-03-08T03:40:01;10.10;50.70
16347;DHT22;8283;48.504;13.734;2023-03-08T03:42:48;10.10;50.70
16347;DHT22;8283;48.504;13.734;2023-03-08T03:45:32;10.10;50.70
16347;DHT22;8283;48.504;13.734;2023-03-08T03:48:17;10.10;50.70
16347;DHT22;8283;48.504;13.734;2023-03-08T03:51:05;10.00;50.70
16347;DHT22;8283;48.504;13.734;2023-03-08T03:53:50;10.10;50.90
16347;DHT22;8283;48.504;13.734;2023-03-08T03:56:37;10.00;50.70
16347;DHT22;8283;48.504;13.734;2023-03-08T03:59:24;10.00;50.80
16347;DHT22;8283;48.504;13.734;2023-03-08T04:02:09;10.80;51.30
16347;DHT22;8283;48.504;13.734;2023-03-08T04:05:02;10.00;50.80
16347;DHT22;8283;48.504;13.734;2023-03-08T04:07:49;9.90;50.80
16347;DHT22;8283;48.504;13.734;2023-03-08T04:10:34;9.90;50.80
16347;DHT22;8283;48.504;13.734;2023-03-08T04:13:19;9.90;50.90
16347;DHT22;8283;48.504;13.734;2023-03-08T04:16:26;9.90;50.90
16347;DHT22;8283;48.504;13.734;2023-03-08T04:19:12;9.90;51.40
16347;DHT22;8283;48.504;13.734;2023-03-08T04:22:03;9.80;50.80
16347;DHT22;8283;48.504;13.734;2023-03-08T04:24:55;9.80;50.80
16347;DHT22;8283;48.504;13.734;2023-03-08T04:27:47;9.70;50.80
16347;DHT22;8283;48.504;13.734;2023-03-08T04:30:32;9.70;51.40
16347;DHT22;8283;48.504;13.734;2023-03-08T04:33:18;9.70;50.60
16347;DHT22;8283;48.504;13.734;2023-03-08T04:36:06;9.60;50.60
16347;DHT22;8283;48.504;13.734;2023-03-08T04:38:51;9.50;50.70
16347;DHT22;8283;48.504;13.734;2023-03-08T04:41:36;9.40;50.80
16347;DHT22;8283;48.504;13.734;2023-03-08T04:44:29;9.40;50.90
16347;DHT22;8283;48.504;13.734;2023-03-08T04:47:14;9.30;50.80
16347;DHT22;8283;48.504;13.734;2023-03-08T04:50:03;9.20;50.90
16347;DHT22;8283;48.504;13.734;2023-03-08T04:52:48;9.20;51.50
16347;DHT22;8283;48.504;13.734;2023-03-08T04:55:35;9.10;51.00
16347;DHT22;8283;48.504;13.734;2023-03-08T04:58:20;9.10;51.40
16347;DHT22;8283;48.504;13.734;2023-03-08T05:01:23;9.00;51.30
16347;DHT22;8283;48.504;13.734;2023-03-08T05:04:10;9.00;52.10
16347;DHT22;8283;48.504;13.734;2023-03-08T05:06:56;8.90;51.40
16347;DHT22;8283;48.504;13.734;2023-03-08T05:09:43;8.90;51.40
16347;DHT22;8283;48.504;13.734;2023-03-08T05:12:27;8.90;51.50
16347;DHT22;8283;48.504;13.734;2023-03-08T05:15:15;8.90;51.60
16347;DHT22;8283;48.504;13.734;2023-03-08T05:18:00;8.90;51.60
16347;DHT22;8283;48.504;13.734;2023-03-08T05:20:52;8.90;51.70
16347;DHT22;8283;48.504;13.734;2023-03-08T05:23:37;8.90;52.20
16347;DHT22;8283;48.504;13.734;2023-03-08T05:26:22;8.90;51.90
16347;DHT22;8283;48.504;13.734;2023-03-08T05:29:08;8.90;51.90
16347;DHT22;8283;48.504;13.734;2023-03-08T05:31:54;8.90;51.90
16347;DHT22;8283;48.504;13.734;2023-03-08T05:34:41;8.90;52.00
16347;DHT22;8283;48.504;13.734;2023-03-08T05:37:28;8.80;52.10
16347;DHT22;8283;48.504;13.734;2023-03-08T05:40:18;8.80;52.20
16347;DHT22;8283;48.504;13.734;2023-03-08T05:43:03;8.90;52.30
16347;DHT22;8283;48.504;13.734;2023-03-08T05:46:09;8.80;52.40
16347;DHT22;8283;48.504;13.734;2023-03-08T05:48:56;8.90;52.80
16347;DHT22;8283;48.504;13.734;2023-03-08T05:51:40;8.90;52.30
16347;DHT22;8283;48.504;13.734;2023-03-08T05:54:25;8.90;52.30
16347;DHT22;8283;48.504;13.734;2023-03-08T05:57:13;8.90;52.30
16347;DHT22;8283;48.504;13.734;2023-03-08T05:59:58;9.00;52.40
16347;DHT22;8283;48.504;13.734;2023-03-08T06:02:43;9.00;52.40
16347;DHT22;8283;48.504;13.734;2023-03-08T06:05:29;9.00;52.50
16347;DHT22;8283;48.504;13.734;2023-03-08T06:08:15;9.00;52.30
16347;DHT22;8283;48.504;13.734;2023-03-08T06:11:00;9.00;52.40
16347;DHT22;8283;48.504;13.734;2023-03-08T06:13:45;9.00;52.40
16347;DHT22;8283;48.504;13.734;2023-03-08T06:16:29;9.00;52.40
16347;DHT22;8283;48.504;13.734;2023-03-08T06:19:14;9.00;52.40
16347;DHT22;8283;48.504;13.734;2023-03-08T06:21:59;9.10;52.50
16347;DHT22;8283;48.504;13.734;2023-03-08T06:24:45;9.10;52.50
16347;DHT22;8283;48.504;13.734;2023-03-08T06:27:34;9.10;52.50
16347;DHT22;8283;48.504;13.734;2023-03-08T06:30:22;9.20;52.70
16347;DHT22;8283;48.504;13.734;2023-03-08T06:33:09;9.20;52.70
16347;DHT22;8283;48.504;13.734;2023-03-08T06:36:02;9.20;52.80
16347;DHT22;8283;48.504;13.734;2023-03-08T06:38:48;9.20;53.30
16347;DHT22;8283;48.504;13.734;2023-03-08T06:41:33;9.30;53.00
16347;DHT22;8283;48.504;13.734;2023-03-08T06:44:19;9.30;53.10
16347;DHT22;8283;48.504;13.734;2023-03-08T06:47:03;9.30;53.10
16347;DHT22;8283;48.504;13.734;2023-03-08T06:49:48;9.40;53.20
16347;DHT22;8283;48.504;13.734;2023-03-08T06:52:32;9.50;53.30
16347;DHT22;8283;48.504;13.734;2023-03-08T06:55:21;9.50;53.40
16347;DHT22;8283;48.504;13.734;2023-03-08T06:58:05;9.60;53.50
16347;DHT22;8283;48.504;13.734;2023-03-08T07:00:50;9.70;53.70
16347;DHT22;8283;48.504;13.734;2023-03-08T07:03:35;9.80;53.70
16347;DHT22;8283;48.504;13.734;2023-03-08T07:06:19;10.00;53.80
16347;DHT22;8283;48.504;13.734;2023-03-08T07:09:03;10.10;53.80
16347;DHT22;8283;48.504;13.734;2023-03-08T07:11:48;10.20;53.70
16347;DHT22;8283;48.504;13.734;2023-03-08T07:14:32;10.30;54.10
16347;DHT22;8283;48.504;13.734;2023-03-08T07:17:17;10.40;53.40
16347;DHT22;8283;48.504;13.734;2023-03-08T07:20:02;10.50;53.40
16347;DHT22;8283;48.504;13.734;2023-03-08T07:22:50;10.60;53.40
16347;DHT22;8283;48.504;13.734;2023-03-08T07:25:37;10.70;53.30
16347;DHT22;8283;48.504;13.734;2023-03-08T07:28:23;10.80;53.40
16347;DHT22;8283;48.504;13.734;2023-03-08T07:31:09;10.80;53.40
16347;DHT22;8283;48.504;13.734;2023-03-08T07:33:55;11.00;53.50
16347;DHT22;8283;48.504;13.734;2023-03-08T07:36:40;11.00;53.40
16347;DHT22;8283;48.504;13.734;2023-03-08T07:39:24;11.10;53.40
16347;DHT22;8283;48.504;13.734;2023-03-08T07:42:12;11.20;53.40
16347;DHT22;8283;48.504;13.734;2023-03-08T07:44:57;11.30;53.60
16347;DHT22;8283;48.504;13.734;2023-03-08T07:47:42;11.40;53.60
16347;DHT22;8283;48.504;13.734;2023-03-08T07:50:26;11.50;53.70
16347;DHT22;8283;48.504;13.734;2023-03-08T07:53:10;11.70;53.70
16347;DHT22;8283;48.504;13.734;2023-03-08T07:55:56;11.80;53.60
16347;DHT22;8283;48.504;13.734;2023-03-08T07:58:41;12.00;53.70
16347;DHT22;8283;48.504;13.734;2023-03-08T08:01:25;12.20;53.70
16347;DHT22;8283;48.504;13.734;2023-03-08T08:04:10;12.30;53.80
16347;DHT22;8283;48.504;13.734;2023-03-08T08:06:55;12.50;53.70
16347;DHT22;8283;48.504;13.734;2023-03-08T08:09:42;12.70;53.70
16347;DHT22;8283;48.504;13.734;2023-03-08T08:12:27;12.90;53.60
16347;DHT22;8283;48.504;13.734;2023-03-08T08:15:11;13.00;53.40
16347;DHT22;8283;48.504;13.734;2023-03-08T08:17:55;13.20;53.40
16347;DHT22;8283;48.504;13.734;2023-03-08T08:20:39;13.30;53.30
16347;DHT22;8283;48.504;13.734;2023-03-08T08:23:24;13.50;53.30
16347;DHT22;8283;48.504;13.734;2023-03-08T08:26:12;13.60;53.20
16347;DHT22;8283;48.504;13.734;2023-03-08T08:28:56;13.80;53.20
16347;DHT22;8283;48.504;13.734;2023-03-08T08:31:41;14.00;53.20
16347;DHT22;8283;48.504;13.734;2023-03-08T08:34:25;14.10;53.00
16347;DHT22;8283;48.504;13.734;2023-03-08T08:37:09;14.20;52.80
16347;DHT22;8283;48.504;13.734;2023-03-08T08:39:54;14.30;52.40
16347;DHT22;8283;48.504;13.734;2023-03-08T08:42:39;14.40;52.50
16347;DHT22;8283;48.504;13.734;2023-03-08T08:45:23;14.50;52.40
16347;DHT22;8283;48.504;13.734;2023-03-08T08:48:07;14.60;52.20
16347;DHT22;8283;48.504;13.734;2023-03-08T08:50:51;14.70;52.20
16347;DHT22;8283;48.504;13.734;2023-03-08T08:53:35;14.80;51.90
16347;DHT22;8283;48.504;13.734;2023-03-08T08:56:24;14.80;51.70
16347;DHT22;8283;48.504;13.734;2023-03-08T08:59:10;14.90;51.30
16347;DHT22;8283;48.504;13.734;2023-03-08T09:01:55;14.90;51.30
16347;DHT22;8283;48.504;13.734;2023-03-08T09:04:39;15.00;51.40
16347;DHT22;8283;48.504;13.734;2023-03-08T09:07:24;15.00;51.50
16347;DHT22;8283;48.504;13.734;2023-03-08T09:10:08;15.10;51.60
16347;DHT22;8283;48.504;13.734;2023-03-08T09:12:53;14.70;51.40
16347;DHT22;8283;48.504;13.734;2023-03-08T09:15:37;15.30;51.70
16347;DHT22;8283;48.504;13.734;2023-03-08T09:18:22;15.50;51.70
16347;DHT22;8283;48.504;13.734;2023-03-08T09:21:06;15.70;51.90
16347;DHT22;8283;48.504;13.734;2023-03-08T09:23:51;15.90;52.00
16347;DHT22;8283;48.504;13.734;2023-03-08T09:26:35;16.10;52.00
16347;DHT22;8283;48.504;13.734;2023-03-08T09:29:19;16.30;52.20
16347;DHT22;8283;48.504;13.734;2023-03-08T09:32:04;16.60;52.20
16347;DHT22;8283;48.504;13.734;2023-03-08T09:34:50;16.80;52.10
16347;DHT22;8283;48.504;13.734;2023-03-08T09:37:35;17.10;51.90
16347;DHT22;8283;48.504;13.734;2023-03-08T09:40:21;17.40;51.90
16347;DHT22;8283;48.504;13.734;2023-03-08T09:43:22;17.60;51.90
16347;DHT22;8283;48.504;13.734;2023-03-08T09:46:17;18.00;50.90
16347;DHT22;8283;48.504;13.734;2023-03-08T09:49:11;18.30;50.90
16347;DHT22;8283;48.504;13.734;2023-03-08T09:52:15;18.60;51.20
16347;DHT22;8283;48.504;13.734;2023-03-08T09:55:02;18.90;50.40
16347;DHT22;8283;48.504;13.734;2023-03-08T09:57:51;19.20;51.30
16347;DHT22;8283;48.504;13.734;2023-03-08T10:00:37;19.60;50.60
16347;DHT22;8283;48.504;13.734;2023-03-08T10:03:36;19.80;50.80
16347;DHT22;8283;48.504;13.734;2023-03-08T10:09:59;20.40;47.90
16347;DHT22;8283;48.504;13.734;2023-03-08T10:15:52;20.70;48.30
16347;DHT22;8283;48.504;13.734;2023-03-08T10:19:00;20.70;48.10
16347;DHT22;8283;48.504;13.734;2023-03-08T10:21:46;20.70;46.90
16347;DHT22;8283;48.504;13.734;2023-03-08T10:24:44;20.70;47.70
16347;DHT22;8283;48.504;13.734;2023-03-08T10:27:33;20.70;46.60
16347;DHT22;8283;48.504;13.734;2023-03-08T10:30:20;20.70;47.30
16347;DHT22;8283;48.504;13.734;2023-03-08T10:33:08;20.60;47.00
16347;DHT22;8283;48.504;13.734;2023-03-08T10:36:00;20.60;46.80
16347;DHT22;8283;48.504;13.734;2023-03-08T10:39:19;20.50;46.30
16347;DHT22;8283;48.504;13.734;2023-03-08T10:42:13;20.40;45.60
16347;DHT22;8283;48.504;13.734;2023-03-08T10:45:15;20.20;45.60
16347;DHT22;8283;48.504;13.734;2023-03-08T10:48:04;20.10;45.40
16347;DHT22;8283;48.504;13.734;2023-03-08T10:50:57;19.80;46.00
16347;DHT22;8283;48.504;13.734;2023-03-08T10:54:01;19.50;45.30
16347;DHT22;8283;48.504;13.734;2023-03-08T10:56:52;19.40;45.60
16347;DHT22;8283;48.504;13.734;2023-03-08T10:59:37;19.10;46.10
16347;DHT22;8283;48.504;13.734;2023-03-08T11:02:22;18.70;46.50
16347;DHT22;8283;48.504;13.734;2023-03-08T11:05:22;18.90;46.80
16347;DHT22;8283;48.504;13.734;2023-03-08T11:08:17;18.90;46.40
16347;DHT22;8283;48.504;13.734;2023-03-08T11:11:07;18.90;46.50
16347;DHT22;8283;48.504;13.734;2023-03-08T11:13:53;18.90;47.10
16347;DHT22;8283;48.504;13.734;2023-03-08T11:16:49;19.00;47.20
16347;DHT22;8283;48.504;13.734;2023-03-08T11:20:01;19.00;47.10
16347;DHT22;8283;48.504;13.734;2023-03-08T11:26:18;19.00;46.00
16347;DHT22;8283;48.504;13.734;2023-03-08T11:29:21;18.90;45.90
16347;DHT22;8283;48.504;13.734;2023-03-08T11:38:13;18.60;45.90
16347;DHT22;8283;48.504;13.734;2023-03-08T11:55:40;17.80;46.00
16347;DHT22;8283;48.504;13.734;2023-03-08T12:01:40;17.60;45.90
16347;DHT22;8283;48.504;13.734;2023-03-08T12:07:32;17.60;46.30
16347;DHT22;8283;48.504;13.734;2023-03-08T12:13:54;17.50;46.20
16347;DHT22;8283;48.504;13.734;2023-03-08T12:16:49;17.50;46.50
16347;DHT22;8283;48.504;13.734;2023-03-08T12:19:47;17.40;46.90
16347;DHT22;8283;48.504;13.734;2023-03-08T12:22:59;17.40;46.20
16347;DHT22;8283;48.504;13.734;2023-03-08T12:25:48;17.40;46.20
16347;DHT22;8283;48.504;13.734;2023-03-08T12:28:39;17.30;46.50
16347;DHT22;8283;48.504;13.734;2023-03-08T12:31:26;17.30;46.50
16347;DHT22;8283;48.504;13.734;2023-03-08T12:34:27;17.30;46.50
16347;DHT22;8283;48.504;13.734;2023-03-08T12:37:38;17.30;46.40
16347;DHT22;8283;48.504;13.734;2023-03-08T12:46:09;17.30;46.70
16347;DHT22;8283;48.504;13.734;2023-03-08T12:48:54;17.20;46.60
16347;DHT22;8283;48.504;13.734;2023-03-08T12:51:40;17.20;46.60
16347;DHT22;8283;48.504;13.734;2023-03-08T12:54:28;17.20;46.70
16347;DHT22;8283;48.504;13.734;2023-03-08T12:57:18;17.20;46.50
16347;DHT22;8283;48.504;13.734;2023-03-08T13:05:55;17.20;46.40
16347;DHT22;8283;48.504;13.734;2023-03-08T13:08:46;17.10;46.50
16347;DHT22;8283;48.504;13.734;2023-03-08T13:11:38;17.10;47.00
16347;DHT22;8283;48.504;13.734;2023-03-08T13:23:46;17.10;46.20
16347;DHT22;8283;48.504;13.734;2023-03-08T13:29:38;17.10;46.40
16347;DHT22;8283;48.504;13.734;2023-03-08T13:32:25;17.00;46.50
16347;DHT22;8283;48.504;13.734;2023-03-08T13:35:14;17.00;46.50
16347;DHT22;8283;48.504;13.734;2023-03-08T13:37:59;17.00;46.40
16347;DHT22;8283;48.504;13.734;2023-03-08T13:40:50;16.90;46.50
16347;DHT22;8283;48.504;13.734;2023-03-08T13:43:35;16.90;46.50
16347;DHT22;8283;48.504;13.734;2023-03-08T13:46:20;16.90;46.70
16347;DHT22;8283;48.504;13.734;2023-03-08T13:52:21;16.80;46.40
16347;DHT22;8283;48.504;13.734;2023-03-08T13:55:14;16.80;46.50
16347;DHT22;8283;48.504;13.734;2023-03-08T13:58:02;16.80;46.60
16347;DHT22;8283;48.504;13.734;2023-03-08T14:01:18;16.80;46.70
16347;DHT22;8283;48.504;13.734;2023-03-08T14:04:10;16.80;46.60
16347;DHT22;8283;48.504;13.734;2023-03-08T14:06:56;16.80;46.80
16347;DHT22;8283;48.504;13.734;2023-03-08T14:09:41;16.70;46.90
16347;DHT22;8283;48.504;13.734;2023-03-08T14:12:30;16.70;46.90
16347;DHT22;8283;48.504;13.734;2023-03-08T14:15:16;16.70;46.90
16347;DHT22;8283;48.504;13.734;2023-03-08T14:18:01;16.70;47.00
16347;DHT22;8283;48.504;13.734;2023-03-08T14:21:02;16.70;47.00
16347;DHT22;8283;48.504;13.734;2023-03-08T14:23:55;16.70;46.90
16347;DHT22;8283;48.504;13.734;2023-03-08T14:26:40;16.70;47.00
16347;DHT22;8283;48.504;13.734;2023-03-08T14:29:29;16.70;47.10
16347;DHT22;8283;48.504;13.734;2023-03-08T14:35:13;16.70;47.20
16347;DHT22;8283;48.504;13.734;2023-03-08T14:37:57;16.70;47.20
16347;DHT22;8283;48.504;13.734;2023-03-08T14:40:46;16.60;47.10
16347;DHT22;8283;48.504;13.734;2023-03-08T14:43:32;16.60;47.10
16347;DHT22;8283;48.504;13.734;2023-03-08T14:46:17;16.60;47.10
16347;DHT22;8283;48.504;13.734;2023-03-08T14:49:03;16.60;47.10
16347;DHT22;8283;48.504;13.734;2023-03-08T14:51:48;16.50;47.10
16347;DHT22;8283;48.504;13.734;2023-03-08T14:54:34;16.50;47.10
16347;DHT22;8283;48.504;13.734;2023-03-08T14:57:26;16.50;47.30
16347;DHT22;8283;48.504;13.734;2023-03-08T15:00:13;16.50;47.20
16347;DHT22;8283;48.504;13.734;2023-03-08T15:02:59;16.40;47.30
16347;DHT22;8283;48.504;13.734;2023-03-08T15:05:44;16.40;47.40
16347;DHT22;8283;48.504;13.734;2023-03-08T15:08:31;16.40;47.50
16347;DHT22;8283;48.504;13.734;2023-03-08T15:11:15;16.30;47.70
16347;DHT22;8283;48.504;13.734;2023-03-08T15:14:00;16.30;47.70
16347;DHT22;8283;48.504;13.734;2023-03-08T15:16:45;16.30;47.80
16347;DHT22;8283;48.504;13.734;2023-03-08T15:19:29;16.30;47.90
16347;DHT22;8283;48.504;13.734;2023-03-08T15:22:14;16.20;47.80
16347;DHT22;8283;48.504;13.734;2023-03-08T15:24:59;16.20;47.90
16347;DHT22;8283;48.504;13.734;2023-03-08T15:27:44;16.20;47.90
16347;DHT22;8283;48.504;13.734;2023-03-08T15:30:29;16.20;48.00
16347;DHT22;8283;48.504;13.734;2023-03-08T15:33:14;16.10;48.10
16347;DHT22;8283;48.504;13.734;2023-03-08T15:35:58;16.10;48.10
16347;DHT22;8283;48.504;13.734;2023-03-08T15:38:43;16.10;48.20
16347;DHT22;8283;48.504;13.734;2023-03-08T15:41:27;16.00;48.30
16347;DHT22;8283;48.504;13.734;2023-03-08T15:44:11;16.00;48.30
16347;DHT22;8283;48.504;13.734;2023-03-08T15:46:56;16.00;48.30
16347;DHT22;8283;48.504;13.734;2023-03-08T15:49:41;16.00;48.40
16347;DHT22;8283;48.504;13.734;2023-03-08T15:52:27;15.90;48.30
16347;DHT22;8283;48.504;13.734;2023-03-08T15:55:13;15.90;48.50
16347;DHT22;8283;48.504;13.734;2023-03-08T15:57:58;15.90;48.60
16347;DHT22;8283;48.504;13.734;2023-03-08T16:00:43;15.80;48.60
16347;DHT22;8283;48.504;13.734;2023-03-08T16:03:27;15.80;48.70
16347;DHT22;8283;48.504;13.734;2023-03-08T16:06:13;15.70;48.70
16347;DHT22;8283;48.504;13.734;2023-03-08T16:08:58;15.70;48.90
16347;DHT22;8283;48.504;13.734;2023-03-08T16:11:42;15.60;48.90
16347;DHT22;8283;48.504;13.734;2023-03-08T16:14:27;15.60;49.00
16347;DHT22;8283;48.504;13.734;2023-03-08T16:17:11;15.60;49.20
16347;DHT22;8283;48.504;13.734;2023-03-08T16:19:56;15.50;49.30
16347;DHT22;8283;48.504;13.734;2023-03-08T16:22:40;15.50;49.50
16347;DHT22;8283;48.504;13.734;2023-03-08T16:25:25;15.50;49.70
16347;DHT22;8283;48.504;13.734;2023-03-08T16:28:10;15.40;49.80
16347;DHT22;8283;48.504;13.734;2023-03-08T16:30:56;15.40;49.90
16347;DHT22;8283;48.504;13.734;2023-03-08T16:33:40;15.30;50.10
16347;DHT22;8283;48.504;13.734;2023-03-08T16:36:25;15.20;50.20
16347;DHT22;8283;48.504;13.734;2023-03-08T16:39:09;15.20;50.40
16347;DHT22;8283;48.504;13.734;2023-03-08T16:41:54;15.10;50.50
16347;DHT22;8283;48.504;13.734;2023-03-08T16:44:39;15.10;50.60
16347;DHT22;8283;48.504;13.734;2023-03-08T16:47:24;14.90;50.60
16347;DHT22;8283;48.504;13.734;2023-03-08T16:50:11;14.90;50.90
16347;DHT22;8283;48.504;13.734;2023-03-08T16:52:57;14.80;51.00
16347;DHT22;8283;48.504;13.734;2023-03-08T16:55:41;14.70;51.10
16347;DHT22;8283;48.504;13.734;2023-03-08T16:58:27;14.60;51.20
16347;DHT22;8283;48.504;13.734;2023-03-08T17:01:15;14.50;51.50
16347;DHT22;8283;48.504;13.734;2023-03-08T17:03:59;14.40;51.90
16347;DHT22;8283;48.504;13.734;2023-03-08T17:06:44;14.30;51.40
16347;DHT22;8283;48.504;13.734;2023-03-08T17:09:29;14.20;51.70
16347;DHT22;8283;48.504;13.734;2023-03-08T17:12:14;14.10;51.80
16347;DHT22;8283;48.504;13.734;2023-03-08T17:14:58;14.00;52.00
16347;DHT22;8283;48.504;13.734;2023-03-08T17:17:43;14.00;52.00
16347;DHT22;8283;48.504;13.734;2023-03-08T17:20:27;13.90;52.20
16347;DHT22;8283;48.504;13.734;2023-03-08T17:23:11;13.80;52.30
16347;DHT22;8283;48.504;13.734;2023-03-08T17:25:56;13.70;52.40
16347;DHT22;8283;48.504;13.734;2023-03-08T17:28:41;13.60;52.60
16347;DHT22;8283;48.504;13.734;2023-03-08T17:31:25;13.60;52.80
16347;DHT22;8283;48.504;13.734;2023-03-08T17:34:10;13.50;52.90
16347;DHT22;8283;48.504;13.734;2023-03-08T17:36:54;13.50;53.10
16347;DHT22;8283;48.504;13.734;2023-03-08T17:39:39;13.40;53.20
16347;DHT22;8283;48.504;13.734;2023-03-08T17:42:23;13.40;53.30
16347;DHT22;8283;48.504;13.734;2023-03-08T17:45:08;13.30;53.40
16347;DHT22;8283;48.504;13.734;2023-03-08T17:47:53;13.30;53.60
16347;DHT22;8283;48.504;13.734;2023-03-08T17:50:44;13.30;53.70
16347;DHT22;8283;48.504;13.734;2023-03-08T17:53:30;13.20;53.60
16347;DHT22;8283;48.504;13.734;2023-03-08T17:56:17;13.20;53.70
16347;DHT22;8283;48.504;13.734;2023-03-08T17:59:03;13.20;54.00
16347;DHT22;8283;48.504;13.734;2023-03-08T18:01:47;13.10;53.70
16347;DHT22;8283;48.504;13.734;2023-03-08T18:04:32;13.10;53.80
16347;DHT22;8283;48.504;13.734;2023-03-08T18:07:18;13.10;53.90
16347;DHT22;8283;48.504;13.734;2023-03-08T18:10:04;13.00;54.70
16347;DHT22;8283;48.504;13.734;2023-03-08T18:12:49;13.00;54.30
16347;DHT22;8283;48.504;13.734;2023-03-08T18:15:34;13.00;54.30
16347;DHT22;8283;48.504;13.734;2023-03-08T18:18:18;12.90;54.20
16347;DHT22;8283;48.504;13.734;2023-03-08T18:21:02;12.90;54.30
16347;DHT22;8283;48.504;13.734;2023-03-08T18:23:47;12.90;54.30
16347;DHT22;8283;48.504;13.734;2023-03-08T18:26:32;12.80;54.40
16347;DHT22;8283;48.504;13.734;2023-03-08T18:29:17;12.80;54.50
16347;DHT22;8283;48.504;13.734;2023-03-08T18:32:02;12.70;54.70
16347;DHT22;8283;48.504;13.734;2023-03-08T18:34:47;12.70;54.70
16347;DHT22;8283;48.504;13.734;2023-03-08T18:37:31;12.60;54.80
16347;DHT22;8283;48.504;13.734;2023-03-08T18:40:16;12.60;54.80
16347;DHT22;8283;48.504;13.734;2023-03-08T18:43:01;11.90;54.70
16347;DHT22;8283;48.504;13.734;2023-03-08T18:45:54;12.60;55.10
16347;DHT22;8283;48.504;13.734;2023-03-08T18:48:40;12.50;56.20
16347;DHT22;8283;48.504;13.734;2023-03-08T18:51:24;12.50;55.20
16347;DHT22;8283;48.504;13.734;2023-03-08T18:54:11;12.50;55.30
16347;DHT22;8283;48.504;13.734;2023-03-08T18:56:56;12.50;55.60